createdAt,value
2017-06-15T00:01:53.007Z,18.20
2017-06-15T00:04:19.432Z,18.20
2017-06-15T00:06:45.919Z,18.20
2017-06-15T00:09:12.356Z,18.00
2017-06-15T00:11:38.773Z,18.10
2017-06-15T00:14:05.243Z,18.20
2017-06-15T00:16:31.679Z,18.10
2017-06-15T00:18:58.856Z,18.00
2017-06-15T00:21:25.402Z,17.90
2017-06-15T00:23:51.977Z,18.20
2017-06-15T00:26:18.431Z,18.20
2017-06-15T00:28:45.620Z,17.80
2017-06-15T00:31:12.168Z,17.80
2017-06-15T00:33:38.650Z,17.90
2017-06-15T00:36:05.873Z,17.90
2017-06-15T00:38:32.311Z,17.90
2017-06-15T00:40:59.552Z,17.80
2017-06-15T00:43:26.033Z,17.80
2017-06-15T00:45:52.481Z,17.80
2017-06-15T00:48:18.864Z,17.90
2017-06-15T00:50:45.300Z,17.80
2017-06-15T00:53:12.478Z,17.50
2017-06-15T00:55:38.906Z,17.50
2017-06-15T00:58:05.403Z,17.50
2017-06-15T01:00:31.883Z,17.30
2017-06-15T01:02:58.444Z,17.30
2017-06-15T01:05:25.013Z,17.00
2017-06-15T01:07:51.475Z,16.90
2017-06-15T01:10:18.675Z,16.90
2017-06-15T01:12:45.149Z,16.90
2017-06-15T01:15:12.354Z,17.00
2017-06-15T01:17:38.779Z,17.00
2017-06-15T01:20:05.229Z,17.10
2017-06-15T01:22:31.666Z,17.00
2017-06-15T01:24:58.125Z,17.00
2017-06-15T01:27:25.294Z,17.00
2017-06-15T01:29:51.705Z,16.90
2017-06-15T01:32:19.066Z,17.10
2017-06-15T01:34:45.602Z,17.10
2017-06-15T01:37:12.836Z,17.10
2017-06-15T01:39:39.264Z,16.80
2017-06-15T01:42:05.725Z,16.90
2017-06-15T01:44:32.941Z,16.50
2017-06-15T01:46:59.392Z,16.50
2017-06-15T01:49:25.930Z,16.50
2017-06-15T01:51:52.336Z,16.80
2017-06-15T01:54:18.752Z,17.00
2017-06-15T01:56:45.221Z,17.10
2017-06-15T01:59:11.630Z,16.80
2017-06-15T02:01:38.066Z,16.80
2017-06-15T02:04:04.763Z,16.90
2017-06-15T02:06:31.418Z,16.90
2017-06-15T02:08:57.855Z,16.70
2017-06-15T02:11:24.503Z,16.80
2017-06-15T02:13:50.952Z,16.80
2017-06-15T02:16:17.384Z,16.80
2017-06-15T02:18:43.880Z,16.80
2017-06-15T02:21:10.332Z,16.80
2017-06-15T02:23:36.720Z,16.70
2017-06-15T02:26:03.945Z,16.40
2017-06-15T02:28:30.481Z,16.40
2017-06-15T02:30:56.893Z,16.40
2017-06-15T02:33:23.420Z,16.20
2017-06-15T02:35:49.869Z,16.10
2017-06-15T02:38:16.389Z,16.20
2017-06-15T02:40:42.931Z,16.30
2017-06-15T02:43:10.337Z,16.20
2017-06-15T02:45:36.770Z,16.20
2017-06-15T02:48:03.245Z,16.40
2017-06-15T02:50:29.697Z,16.40
2017-06-15T02:52:56.142Z,16.50
2017-06-15T02:55:22.651Z,16.60
2017-06-15T02:57:49.052Z,16.40
2017-06-15T03:00:15.449Z,16.50
2017-06-15T03:02:42.730Z,16.50
2017-06-15T03:05:09.155Z,16.40
2017-06-15T03:07:35.581Z,16.50
2017-06-15T03:10:02.024Z,16.40
2017-06-15T03:12:28.422Z,16.40
2017-06-15T03:14:54.847Z,16.20
2017-06-15T03:17:21.284Z,16.10
2017-06-15T03:19:47.719Z,16.10
2017-06-15T03:22:14.241Z,16.10
2017-06-15T03:24:40.761Z,16.30
2017-06-15T03:27:07.166Z,16.00
2017-06-15T03:29:33.596Z,15.80
2017-06-15T03:32:00.059Z,15.70
2017-06-15T03:34:26.476Z,15.80
2017-06-15T03:36:52.943Z,15.60
2017-06-15T03:39:19.395Z,15.60
2017-06-15T03:41:46.573Z,16.10
2017-06-15T03:44:13.057Z,16.10
2017-06-15T03:46:39.549Z,15.90
2017-06-15T03:49:06.207Z,16.10
2017-06-15T03:51:32.658Z,16.20
2017-06-15T03:53:59.099Z,16.10
2017-06-15T03:56:25.519Z,16.20
2017-06-15T03:58:52.008Z,16.00
2017-06-15T04:01:18.475Z,15.90
2017-06-15T04:03:44.925Z,16.20
2017-06-15T04:06:11.366Z,16.40
2017-06-15T04:08:37.903Z,16.60
2017-06-15T04:11:05.078Z,16.70
2017-06-15T04:13:31.500Z,16.70
2017-06-15T04:15:58.681Z,16.80
2017-06-15T04:18:25.281Z,16.80
2017-06-15T04:20:52.503Z,17.00
2017-06-15T04:23:18.942Z,17.00
2017-06-15T04:25:45.363Z,17.20
2017-06-15T04:28:11.802Z,17.20
2017-06-15T04:30:38.255Z,17.30
2017-06-15T04:33:05.417Z,17.00
2017-06-15T04:35:32.629Z,17.20
2017-06-15T04:37:59.084Z,17.20
2017-06-15T04:40:25.498Z,17.10
2017-06-15T04:42:58.927Z,17.20
2017-06-15T04:45:26.551Z,17.40
2017-06-15T04:47:52.986Z,17.40
2017-06-15T04:50:19.491Z,17.60
2017-06-15T04:52:45.961Z,17.70
2017-06-15T04:55:12.416Z,17.80
2017-06-15T04:57:39.607Z,17.60
2017-06-15T05:00:06.022Z,17.60
2017-06-15T05:02:32.513Z,17.70
2017-06-15T05:04:59.127Z,17.70
2017-06-15T05:07:25.645Z,17.70
2017-06-15T05:09:52.080Z,17.80
2017-06-15T05:12:18.562Z,17.80
2017-06-15T05:14:45.301Z,17.80
2017-06-15T05:17:11.843Z,17.80
2017-06-15T05:19:38.353Z,18.00
2017-06-15T05:22:04.914Z,18.00
2017-06-15T05:24:31.534Z,18.10
2017-06-15T05:26:58.570Z,18.20
2017-06-15T05:29:25.299Z,18.30
2017-06-15T05:31:51.737Z,18.10
2017-06-15T05:34:18.190Z,18.20
2017-06-15T05:36:44.605Z,18.30
2017-06-15T05:39:11.041Z,18.50
2017-06-15T05:41:37.486Z,18.60
2017-06-15T05:44:04.051Z,18.90
2017-06-15T05:46:30.713Z,18.70
2017-06-15T05:48:57.289Z,18.60
2017-06-15T05:51:23.715Z,18.60
2017-06-15T05:53:50.168Z,18.70
2017-06-15T05:56:17.566Z,18.90
2017-06-15T05:58:43.997Z,18.90
2017-06-15T06:01:10.490Z,19.00
2017-06-15T06:03:37.029Z,19.10
2017-06-15T06:06:03.569Z,19.10
2017-06-15T06:08:30.819Z,19.10
2017-06-15T06:10:58.069Z,19.30
2017-06-15T06:13:24.540Z,19.30
2017-06-15T06:15:50.965Z,19.20
2017-06-15T06:18:17.405Z,19.80
2017-06-15T06:20:43.840Z,19.90
2017-06-15T06:23:10.521Z,20.20
2017-06-15T06:25:38.066Z,20.10
2017-06-15T06:28:04.593Z,20.20
2017-06-15T06:30:31.252Z,20.30
2017-06-15T06:32:57.753Z,20.30
2017-06-15T06:35:24.230Z,20.50
2017-06-15T06:37:50.892Z,20.70
2017-06-15T06:40:18.135Z,20.70
2017-06-15T06:42:45.292Z,21.00
2017-06-15T06:45:12.079Z,20.90
2017-06-15T06:47:38.549Z,21.00
2017-06-15T06:50:05.027Z,21.10
2017-06-15T06:52:31.721Z,21.10
2017-06-15T06:54:58.297Z,21.40
2017-06-15T06:57:24.732Z,21.30
2017-06-15T06:59:51.144Z,21.40
2017-06-15T07:02:18.401Z,21.50
2017-06-15T07:04:45.033Z,21.50
2017-06-15T07:07:12.247Z,21.90
2017-06-15T07:09:38.970Z,21.90
2017-06-15T07:12:05.407Z,21.90
2017-06-15T07:14:32.470Z,22.00
2017-06-15T07:16:58.969Z,22.20
2017-06-15T07:19:25.435Z,22.10
2017-06-15T07:21:51.930Z,22.10
2017-06-15T07:24:18.422Z,22.20
2017-06-15T07:26:47.257Z,22.40
2017-06-15T07:29:51.437Z,22.50
2017-06-15T07:32:20.458Z,22.60
2017-06-15T07:34:51.464Z,22.70
2017-06-15T07:37:30.432Z,22.70
2017-06-15T07:39:57.500Z,22.60
2017-06-15T07:42:23.930Z,22.80
2017-06-15T07:44:50.515Z,23.10
2017-06-15T07:47:17.933Z,23.10
2017-06-15T07:49:45.514Z,23.40
2017-06-15T07:52:12.896Z,23.40
2017-06-15T07:54:40.255Z,23.40
2017-06-15T07:57:06.761Z,23.40
2017-06-15T07:59:33.274Z,23.30
2017-06-15T08:01:59.892Z,23.30
2017-06-15T08:04:26.307Z,23.30
2017-06-15T08:06:53.576Z,23.10
2017-06-15T08:09:20.142Z,23.10
2017-06-15T08:11:46.596Z,23.30
2017-06-15T08:14:13.821Z,23.60
2017-06-15T08:16:40.426Z,23.60
2017-06-15T08:19:06.893Z,23.80
2017-06-15T08:21:33.338Z,23.80
2017-06-15T08:24:00.587Z,24.50
2017-06-15T08:26:27.029Z,24.50
2017-06-15T08:28:54.357Z,24.50
2017-06-15T08:31:20.838Z,24.40
2017-06-15T08:33:47.237Z,24.70
2017-06-15T08:36:13.666Z,24.70
2017-06-15T08:38:40.418Z,24.80
2017-06-15T08:41:06.855Z,24.60
2017-06-15T08:43:34.132Z,24.90
2017-06-15T08:46:00.809Z,24.90
2017-06-15T08:48:27.260Z,25.20
2017-06-15T08:50:53.912Z,25.60
2017-06-15T08:53:21.710Z,25.40
2017-06-15T08:55:48.283Z,25.40
2017-06-15T09:01:30.470Z,25.50
2017-06-15T09:03:59.501Z,25.40
2017-06-15T09:09:47.721Z,26.50
2017-06-15T09:12:14.394Z,26.00
2017-06-15T09:14:40.853Z,26.30
2017-06-15T09:17:07.504Z,26.40
2017-06-15T09:19:34.191Z,26.10
2017-06-15T09:22:00.641Z,26.90
2017-06-15T09:24:27.283Z,27.40
2017-06-15T09:26:53.761Z,27.70
2017-06-15T09:29:20.268Z,27.70
2017-06-15T09:31:46.793Z,27.50
2017-06-15T09:34:13.381Z,27.90
2017-06-15T09:36:40.060Z,27.50
2017-06-15T09:39:06.650Z,27.70
2017-06-15T09:41:33.148Z,28.10
2017-06-15T09:43:59.667Z,27.70
2017-06-15T09:46:26.334Z,28.40
2017-06-15T09:48:53.572Z,28.40
2017-06-15T09:51:20.108Z,28.40
2017-06-15T09:53:48.686Z,29.00
2017-06-15T09:56:15.249Z,29.70
2017-06-15T09:58:41.839Z,31.20
2017-06-15T10:01:08.345Z,34.30
2017-06-15T10:03:34.861Z,37.40
2017-06-15T10:06:01.282Z,39.70
2017-06-15T10:08:28.540Z,46.00
2017-06-15T10:10:55.044Z,45.90
2017-06-15T10:13:21.655Z,48.40
2017-06-15T10:15:55.362Z,46.50
2017-06-15T10:18:21.975Z,47.30
2017-06-15T10:20:49.152Z,46.30
2017-06-15T10:23:15.691Z,47.90
2017-06-15T10:25:42.217Z,46.90
2017-06-15T10:28:09.347Z,47.70
2017-06-15T10:30:35.889Z,49.90
2017-06-15T10:33:02.523Z,52.90
2017-06-15T10:35:29.004Z,54.50
2017-06-15T10:37:55.647Z,54.60
2017-06-15T10:40:22.302Z,52.40
2017-06-15T10:42:55.860Z,53.60
2017-06-15T10:45:22.427Z,53.10
2017-06-15T10:47:49.888Z,56.00
2017-06-15T10:50:16.586Z,53.20
2017-06-15T10:52:43.233Z,54.70
2017-06-15T10:55:10.077Z,52.70
2017-06-15T10:57:36.715Z,49.00
2017-06-15T11:00:03.172Z,49.70
2017-06-15T11:02:30.414Z,49.30
2017-06-15T11:04:56.891Z,49.30
2017-06-15T11:07:23.661Z,49.70
2017-06-15T11:09:50.258Z,51.20
2017-06-15T11:12:16.968Z,53.60
2017-06-15T11:14:44.697Z,54.10
2017-06-15T11:17:11.327Z,54.10
2017-06-15T11:19:53.075Z,56.20
2017-06-15T11:22:19.566Z,57.60
2017-06-15T11:24:46.002Z,58.80
2017-06-15T11:27:12.593Z,59.00
2017-06-15T11:29:39.163Z,57.80
2017-06-15T11:32:05.585Z,58.70
2017-06-15T11:34:32.740Z,55.90
2017-06-15T11:37:01.637Z,56.10
2017-06-15T11:39:30.502Z,57.10
2017-06-15T11:42:05.312Z,53.40
2017-06-15T11:44:32.940Z,50.90
2017-06-15T11:47:04.510Z,49.60
2017-06-15T11:49:31.794Z,50.60
2017-06-15T11:52:00.912Z,50.50
2017-06-15T11:54:27.675Z,51.70
2017-06-15T11:56:54.187Z,51.30
2017-06-15T11:59:20.724Z,51.10
2017-06-15T12:01:47.222Z,50.60
2017-06-15T12:04:14.001Z,51.40
2017-06-15T12:06:40.432Z,49.50
2017-06-15T12:09:06.897Z,51.30
2017-06-15T12:11:33.426Z,51.50
2017-06-15T12:13:59.870Z,54.10
2017-06-15T12:16:27.077Z,51.90
2017-06-15T12:18:53.531Z,51.90
2017-06-15T12:21:20.101Z,52.60
2017-06-15T12:23:46.615Z,53.20
2017-06-15T12:26:13.248Z,51.60
2017-06-15T12:28:39.738Z,48.70
2017-06-15T12:31:06.207Z,47.20
2017-06-15T12:33:33.247Z,48.30
2017-06-15T12:35:59.719Z,49.80
2017-06-15T12:38:26.911Z,47.00
2017-06-15T12:40:53.482Z,46.90
2017-06-15T12:43:20.002Z,44.90
2017-06-15T12:45:46.618Z,44.40
2017-06-15T12:48:13.051Z,46.90
2017-06-15T12:50:39.765Z,50.10
2017-06-15T12:53:06.550Z,50.00
2017-06-15T12:55:33.088Z,51.10
2017-06-15T12:57:59.498Z,50.60
2017-06-15T13:00:25.957Z,45.30
2017-06-15T13:02:52.443Z,43.30
2017-06-15T13:05:18.942Z,43.00
2017-06-15T13:07:45.579Z,41.00
2017-06-15T13:10:12.044Z,36.70
2017-06-15T13:12:38.477Z,34.40
2017-06-15T13:15:05.095Z,33.70
2017-06-15T13:17:32.321Z,31.30
2017-06-15T13:19:59.170Z,31.10
2017-06-15T13:22:25.589Z,31.00
2017-06-15T13:24:52.102Z,30.70
2017-06-15T13:27:18.516Z,30.60
2017-06-15T13:29:45.095Z,30.50
2017-06-15T13:32:11.657Z,30.20
2017-06-15T13:34:39.209Z,29.90
2017-06-15T13:37:05.635Z,29.90
2017-06-15T13:39:32.223Z,29.90
2017-06-15T13:41:58.688Z,29.80
2017-06-15T13:44:25.166Z,29.50
2017-06-15T13:46:51.636Z,29.40
2017-06-15T13:49:18.115Z,29.50
2017-06-15T13:51:45.274Z,29.70
2017-06-15T13:54:11.744Z,29.60
2017-06-15T13:56:38.214Z,29.60
2017-06-15T13:59:04.673Z,29.60
2017-06-15T14:01:31.948Z,29.20
2017-06-15T14:03:58.565Z,29.20
2017-06-15T14:06:25.698Z,29.50
2017-06-15T14:08:52.182Z,29.50
2017-06-15T14:11:18.656Z,29.30
2017-06-15T14:13:45.288Z,29.40
2017-06-15T14:16:11.796Z,29.20
2017-06-15T14:18:38.270Z,29.30
2017-06-15T14:21:04.863Z,29.30
2017-06-15T14:23:31.374Z,29.50
2017-06-15T14:25:58.510Z,29.40
2017-06-15T14:28:25.024Z,29.70
2017-06-15T14:30:51.452Z,29.90
2017-06-15T14:33:17.998Z,29.70
2017-06-15T14:35:45.474Z,29.60
2017-06-15T14:38:12.086Z,29.60
2017-06-15T14:40:40.165Z,29.30
2017-06-15T14:43:07.308Z,29.40
2017-06-15T14:45:35.113Z,29.40
2017-06-15T14:48:01.546Z,29.40
2017-06-15T14:50:28.102Z,29.00
2017-06-15T14:52:54.562Z,29.00
2017-06-15T14:55:21.009Z,29.00
2017-06-15T14:57:47.426Z,29.20
2017-06-15T15:00:13.874Z,29.30
2017-06-15T15:02:41.039Z,29.20
2017-06-15T15:05:07.501Z,29.20
2017-06-15T15:07:33.996Z,29.30
2017-06-15T15:10:01.179Z,29.50
2017-06-15T15:12:27.680Z,29.40
2017-06-15T15:14:55.114Z,29.80
2017-06-15T15:17:21.594Z,29.80
2017-06-15T15:19:48.310Z,29.80
2017-06-15T15:22:15.690Z,29.40
2017-06-15T15:24:42.167Z,29.30
2017-06-15T15:27:08.615Z,29.20
2017-06-15T15:29:35.094Z,29.40
2017-06-15T15:32:01.512Z,30.80
2017-06-15T15:34:27.947Z,31.80
2017-06-15T15:36:54.554Z,31.30
2017-06-15T15:39:21.099Z,30.90
2017-06-15T15:41:48.559Z,29.70
2017-06-15T15:44:15.188Z,29.60
2017-06-15T15:46:42.401Z,29.30
2017-06-15T15:49:08.859Z,29.30
2017-06-15T15:51:35.500Z,29.10
2017-06-15T15:54:02.040Z,29.00
2017-06-15T15:56:29.891Z,28.60
2017-06-15T15:58:56.473Z,28.40
2017-06-15T16:01:22.906Z,28.50
2017-06-15T16:03:49.349Z,28.50
2017-06-15T16:06:15.824Z,28.40
2017-06-15T16:08:42.259Z,28.30
2017-06-15T16:11:08.703Z,28.20
2017-06-15T16:13:35.179Z,28.20
2017-06-15T16:16:01.677Z,28.20
2017-06-15T16:18:28.902Z,28.40
2017-06-15T16:20:55.338Z,28.40
2017-06-15T16:23:21.814Z,28.40
2017-06-15T16:25:48.228Z,28.40
2017-06-15T16:28:14.696Z,28.30
2017-06-15T16:30:41.114Z,28.20
2017-06-15T16:33:07.564Z,28.10
2017-06-15T16:35:34.094Z,28.20
2017-06-15T16:38:00.565Z,28.10
2017-06-15T16:40:27.032Z,27.90
2017-06-15T16:42:54.250Z,27.80
2017-06-15T16:45:20.706Z,27.80
2017-06-15T16:47:47.346Z,27.80
2017-06-15T16:50:13.944Z,27.70
2017-06-15T16:52:40.362Z,27.60
2017-06-15T16:55:06.814Z,27.60
2017-06-15T16:57:33.476Z,27.60
2017-06-15T17:00:00.544Z,27.60
2017-06-15T17:02:27.951Z,27.50
2017-06-15T17:04:54.465Z,27.50
2017-06-15T17:07:21.017Z,27.50
2017-06-15T17:09:47.470Z,27.60
2017-06-15T17:12:13.903Z,27.40
2017-06-15T17:14:40.435Z,27.30
2017-06-15T17:17:06.958Z,27.30
2017-06-15T17:19:33.434Z,27.20
2017-06-15T17:22:00.514Z,27.20
2017-06-15T17:24:34.017Z,27.30
2017-06-15T17:27:00.693Z,27.30
2017-06-15T17:29:27.163Z,27.20
2017-06-15T17:31:54.560Z,27.00
2017-06-15T17:34:21.010Z,26.90
2017-06-15T17:36:47.462Z,26.90
2017-06-15T17:39:13.992Z,26.90
2017-06-15T17:41:40.549Z,26.90
2017-06-15T17:44:07.728Z,26.80
2017-06-15T17:46:34.383Z,26.80
2017-06-15T17:49:00.820Z,26.70
2017-06-15T17:51:27.263Z,26.70
2017-06-15T17:53:53.704Z,26.70
2017-06-15T17:56:20.182Z,26.70
2017-06-15T17:58:46.617Z,26.60
2017-06-15T18:01:13.107Z,26.60
2017-06-15T18:03:39.712Z,26.60
2017-06-15T18:06:06.187Z,26.50
2017-06-15T18:08:33.253Z,26.50
2017-06-15T18:11:00.553Z,26.40
2017-06-15T18:13:26.986Z,26.40
2017-06-15T18:15:53.465Z,26.40
2017-06-15T18:18:20.770Z,26.30
2017-06-15T18:20:47.531Z,26.30
2017-06-15T18:23:13.985Z,26.30
2017-06-15T18:25:40.577Z,26.20
2017-06-15T18:28:07.033Z,26.10
2017-06-15T18:30:33.493Z,26.10
2017-06-15T18:32:59.930Z,26.10
2017-06-15T18:35:26.375Z,26.00
2017-06-15T18:37:52.869Z,25.90
2017-06-15T18:40:19.325Z,25.80
2017-06-15T18:42:46.558Z,25.70
2017-06-15T18:45:13.068Z,25.80
2017-06-15T18:47:39.647Z,25.70
2017-06-15T18:50:06.801Z,25.60
2017-06-15T18:52:34.188Z,25.50
2017-06-15T18:55:00.608Z,25.50
2017-06-15T18:57:27.038Z,25.50
2017-06-15T18:59:53.494Z,25.40
2017-06-15T19:02:19.946Z,25.30
2017-06-15T19:04:46.378Z,25.30
2017-06-15T19:07:12.857Z,25.20
2017-06-15T19:09:40.076Z,25.10
2017-06-15T19:12:06.690Z,25.10
2017-06-15T19:14:33.117Z,25.10
2017-06-15T19:16:59.589Z,25.00
2017-06-15T19:19:27.111Z,25.00
2017-06-15T19:21:58.553Z,25.00
2017-06-15T19:24:25.059Z,24.90
2017-06-15T19:26:51.564Z,24.90
2017-06-15T19:29:18.036Z,24.80
2017-06-15T19:31:44.605Z,24.80
2017-06-15T19:34:11.056Z,24.70
2017-06-15T19:36:37.560Z,24.70
2017-06-15T19:39:04.077Z,24.60
2017-06-15T19:41:30.697Z,24.60
2017-06-15T19:43:57.434Z,24.50
2017-06-15T19:46:23.867Z,24.50
2017-06-15T19:48:50.545Z,24.50
2017-06-15T19:51:17.058Z,24.50
2017-06-15T19:53:50.747Z,24.50
2017-06-15T19:56:17.945Z,24.50
2017-06-15T19:58:45.164Z,24.40
2017-06-15T20:01:11.735Z,24.40
2017-06-15T20:03:38.302Z,24.30
2017-06-15T20:06:05.867Z,24.20
2017-06-15T20:08:32.386Z,24.20
2017-06-15T20:10:58.904Z,24.10
2017-06-15T20:13:25.595Z,24.20
2017-06-15T20:15:52.323Z,24.10
2017-06-15T20:18:18.919Z,24.20
2017-06-15T20:20:51.447Z,24.10
2017-06-15T20:23:24.924Z,24.10
2017-06-15T20:25:52.414Z,24.00
2017-06-15T20:28:19.730Z,24.00
2017-06-15T20:30:48.160Z,23.90
2017-06-15T20:33:14.695Z,23.90
2017-06-15T20:38:21.064Z,23.80
2017-06-15T20:40:47.689Z,23.60
2017-06-15T20:43:14.410Z,23.50
2017-06-15T20:45:41.102Z,23.60
2017-06-15T20:48:07.650Z,23.50
2017-06-15T20:50:34.548Z,23.60
2017-06-15T20:53:01.151Z,23.40
2017-06-15T20:55:27.887Z,23.40
2017-06-15T20:57:54.795Z,23.40
2017-06-15T21:00:21.756Z,23.30
2017-06-15T21:02:48.496Z,23.20
2017-06-15T21:05:15.127Z,23.20
2017-06-15T21:07:42.335Z,23.10
2017-06-15T21:10:09.092Z,23.30
2017-06-15T21:12:35.860Z,23.10
2017-06-15T21:15:02.980Z,22.90
2017-06-15T21:17:29.649Z,23.00
2017-06-15T21:19:56.142Z,22.80
2017-06-15T21:22:24.024Z,22.90
2017-06-15T21:24:50.843Z,22.70
2017-06-15T21:27:17.391Z,22.70
2017-06-15T21:29:45.918Z,22.60
2017-06-15T21:32:12.791Z,22.60
2017-06-15T21:34:39.310Z,22.60
2017-06-15T21:37:07.407Z,22.70
2017-06-15T21:39:33.945Z,22.70
2017-06-15T21:42:00.529Z,22.60
2017-06-15T21:44:27.262Z,22.50
2017-06-15T21:46:53.816Z,22.30
2017-06-15T21:49:20.773Z,22.20
2017-06-15T21:51:47.238Z,22.20
2017-06-15T21:54:16.358Z,22.30
2017-06-15T21:56:42.774Z,22.40
2017-06-15T21:59:09.287Z,22.40
2017-06-15T22:01:36.486Z,22.40
2017-06-15T22:04:03.003Z,22.30
2017-06-15T22:06:29.491Z,22.30
2017-06-15T22:08:56.951Z,22.30
2017-06-15T22:11:23.381Z,22.30
2017-06-15T22:13:50.682Z,22.30
2017-06-15T22:16:17.107Z,22.30
2017-06-15T22:18:43.577Z,22.30
2017-06-15T22:21:10.043Z,22.40
2017-06-15T22:23:36.631Z,22.40
2017-06-15T22:26:03.077Z,22.10
2017-06-15T22:28:29.572Z,22.20
2017-06-15T22:30:55.992Z,22.20
2017-06-15T22:33:23.633Z,22.20
2017-06-15T22:35:50.098Z,22.20
2017-06-15T22:38:16.693Z,22.20
2017-06-15T22:40:43.155Z,22.20
2017-06-15T22:43:09.625Z,22.20
2017-06-15T22:45:36.033Z,22.20
2017-06-15T22:48:02.459Z,22.10
2017-06-15T22:50:28.937Z,22.10
2017-06-15T22:52:55.371Z,22.10
2017-06-15T22:55:21.779Z,22.10
2017-06-15T22:57:48.374Z,22.10
2017-06-15T23:00:15.745Z,21.90
2017-06-15T23:02:54.402Z,21.90
2017-06-15T23:05:20.855Z,21.90
2017-06-15T23:07:47.469Z,21.70
2017-06-15T23:10:13.966Z,21.70
2017-06-15T23:12:40.685Z,21.70
2017-06-15T23:15:07.808Z,21.50
2017-06-15T23:17:34.269Z,21.50
2017-06-15T23:20:01.507Z,21.50
2017-06-15T23:22:27.933Z,21.50
2017-06-15T23:24:54.369Z,21.50
2017-06-15T23:27:20.951Z,21.30
2017-06-15T23:29:47.395Z,21.10
2017-06-15T23:32:13.984Z,21.00
2017-06-15T23:34:40.686Z,21.00
2017-06-15T23:37:07.129Z,20.70
2017-06-15T23:39:33.576Z,21.00
2017-06-15T23:42:00.204Z,20.90
2017-06-15T23:44:26.821Z,20.90
2017-06-15T23:46:53.229Z,20.90
2017-06-15T23:49:19.658Z,20.90
2017-06-15T23:51:46.090Z,20.80
2017-06-15T23:54:12.547Z,20.90
2017-06-15T23:56:39.482Z,20.80
2017-06-15T23:59:05.899Z,20.80
